sensor_id;sensor_type;location;lat;lon;timestamp;P1;durP1;ratioP1;P2;durP2;ratioP2
22768;SDS011;13001;51.968;5.918;2023-07-31T00:00:28;210.43;;;198.80;;
22768;SDS011;13001;51.968;5.918;2023-07-31T00:02:55;188.97;;;178.37;;
22768;SDS011;13001;51.968;5.918;2023-07-31T00:05:24;186.20;;;175.73;;
22768;SDS011;13001;51.968;5.918;2023-07-31T00:07:51;181.63;;;171.43;;
22768;SDS011;13001;51.968;5.918;2023-07-31T00:10:20;187.43;;;176.73;;
22768;SDS011;13001;51.968;5.918;2023-07-31T00:12:48;178.97;;;168.83;;
22768;SDS011;13001;51.968;5.918;2023-07-31T00:15:15;183.27;;;173.07;;
22768;SDS011;13001;51.968;5.918;2023-07-31T00:17:42;191.27;;;180.47;;
22768;SDS011;13001;51.968;5.918;2023-07-31T00:20:10;200.97;;;189.80;;
22768;SDS011;13001;51.968;5.918;2023-07-31T00:22:37;185.43;;;175.03;;
22768;SDS011;13001;51.968;5.918;2023-07-31T00:25:04;173.90;;;164.13;;
22768;SDS011;13001;51.968;5.918;2023-07-31T00:27:32;172.87;;;162.92;;
22768;SDS011;13001;51.968;5.918;2023-07-31T00:30:00;174.70;;;164.40;;
22768;SDS011;13001;51.968;5.918;2023-07-31T00:32:27;175.35;;;165.25;;
22768;SDS011;13001;51.968;5.918;2023-07-31T00:34:54;166.90;;;157.30;;
22768;SDS011;13001;51.968;5.918;2023-07-31T00:37:21;172.67;;;162.77;;
22768;SDS011;13001;51.968;5.918;2023-07-31T00:39:49;154.80;;;145.90;;
22768;SDS011;13001;51.968;5.918;2023-07-31T00:42:16;135.93;;;128.10;;
22768;SDS011;13001;51.968;5.918;2023-07-31T00:44:43;146.32;;;137.85;;
22768;SDS011;13001;51.968;5.918;2023-07-31T00:47:10;145.55;;;137.22;;
22768;SDS011;13001;51.968;5.918;2023-07-31T00:49:38;142.30;;;133.75;;
22768;SDS011;13001;51.968;5.918;2023-07-31T00:52:05;143.20;;;134.72;;
22768;SDS011;13001;51.968;5.918;2023-07-31T00:54:33;141.90;;;133.20;;
22768;SDS011;13001;51.968;5.918;2023-07-31T00:57:00;138.07;;;129.77;;
22768;SDS011;13001;51.968;5.918;2023-07-31T00:59:28;140.30;;;131.78;;
22768;SDS011;13001;51.968;5.918;2023-07-31T01:01:55;143.82;;;134.97;;
22768;SDS011;13001;51.968;5.918;2023-07-31T01:04:22;143.47;;;134.15;;
22768;SDS011;13001;51.968;5.918;2023-07-31T01:07:06;147.15;;;137.50;;
22768;SDS011;13001;51.968;5.918;2023-07-31T01:09:37;145.50;;;135.75;;
22768;SDS011;13001;51.968;5.918;2023-07-31T01:12:06;150.50;;;140.43;;
22768;SDS011;13001;51.968;5.918;2023-07-31T01:14:34;154.38;;;144.15;;
22768;SDS011;13001;51.968;5.918;2023-07-31T01:17:01;149.38;;;139.57;;
22768;SDS011;13001;51.968;5.918;2023-07-31T01:19:28;147.62;;;137.90;;
22768;SDS011;13001;51.968;5.918;2023-07-31T01:21:59;148.67;;;138.53;;
22768;SDS011;13001;51.968;5.918;2023-07-31T01:24:30;141.30;;;131.80;;
22768;SDS011;13001;51.968;5.918;2023-07-31T01:26:58;144.10;;;133.97;;
22768;SDS011;13001;51.968;5.918;2023-07-31T01:29:32;148.68;;;138.88;;
22768;SDS011;13001;51.968;5.918;2023-07-31T01:31:57;154.97;;;144.62;;
22768;SDS011;13001;51.968;5.918;2023-07-31T01:34:26;155.60;;;145.47;;
22768;SDS011;13001;51.968;5.918;2023-07-31T01:36:55;154.10;;;143.77;;
22768;SDS011;13001;51.968;5.918;2023-07-31T01:39:24;156.78;;;146.68;;
22768;SDS011;13001;51.968;5.918;2023-07-31T01:41:51;155.05;;;144.95;;
22768;SDS011;13001;51.968;5.918;2023-07-31T01:44:18;149.62;;;139.28;;
22768;SDS011;13001;51.968;5.918;2023-07-31T01:46:46;165.43;;;154.32;;
22768;SDS011;13001;51.968;5.918;2023-07-31T01:49:13;161.60;;;151.40;;
22768;SDS011;13001;51.968;5.918;2023-07-31T01:51:40;175.32;;;163.65;;
22768;SDS011;13001;51.968;5.918;2023-07-31T01:54:07;180.52;;;168.72;;
22768;SDS011;13001;51.968;5.918;2023-07-31T01:56:35;184.48;;;172.82;;
22768;SDS011;13001;51.968;5.918;2023-07-31T01:59:02;188.37;;;176.20;;
22768;SDS011;13001;51.968;5.918;2023-07-31T02:01:29;203.10;;;190.15;;
22768;SDS011;13001;51.968;5.918;2023-07-31T02:03:56;211.03;;;197.57;;
22768;SDS011;13001;51.968;5.918;2023-07-31T02:06:24;216.70;;;202.93;;
22768;SDS011;13001;51.968;5.918;2023-07-31T02:08:51;201.17;;;188.67;;
22768;SDS011;13001;51.968;5.918;2023-07-31T02:11:18;209.62;;;196.40;;
22768;SDS011;13001;51.968;5.918;2023-07-31T02:13:46;213.60;;;200.60;;
22768;SDS011;13001;51.968;5.918;2023-07-31T02:16:13;219.47;;;206.20;;
22768;SDS011;13001;51.968;5.918;2023-07-31T02:18:40;213.72;;;200.47;;
22768;SDS011;13001;51.968;5.918;2023-07-31T02:21:07;232.37;;;217.90;;
22768;SDS011;13001;51.968;5.918;2023-07-31T02:23:35;209.90;;;196.60;;
22768;SDS011;13001;51.968;5.918;2023-07-31T02:26:02;208.25;;;195.68;;
22768;SDS011;13001;51.968;5.918;2023-07-31T02:28:29;217.10;;;203.63;;
22768;SDS011;13001;51.968;5.918;2023-07-31T02:30:59;207.50;;;194.37;;
22768;SDS011;13001;51.968;5.918;2023-07-31T02:33:25;200.05;;;187.75;;
22768;SDS011;13001;51.968;5.918;2023-07-31T02:35:53;202.07;;;188.80;;
22768;SDS011;13001;51.968;5.918;2023-07-31T02:38:21;195.50;;;183.20;;
22768;SDS011;13001;51.968;5.918;2023-07-31T02:40:48;202.10;;;189.80;;
22768;SDS011;13001;51.968;5.918;2023-07-31T02:43:16;206.28;;;193.20;;
22768;SDS011;13001;51.968;5.918;2023-07-31T02:45:43;204.57;;;192.00;;
22768;SDS011;13001;51.968;5.918;2023-07-31T02:48:10;215.53;;;201.93;;
22768;SDS011;13001;51.968;5.918;2023-07-31T02:50:37;228.75;;;214.82;;
22768;SDS011;13001;51.968;5.918;2023-07-31T02:53:05;227.05;;;213.20;;
22768;SDS011;13001;51.968;5.918;2023-07-31T02:55:32;238.07;;;223.35;;
22768;SDS011;13001;51.968;5.918;2023-07-31T02:57:59;243.73;;;228.98;;
22768;SDS011;13001;51.968;5.918;2023-07-31T03:00:27;246.77;;;231.60;;
22768;SDS011;13001;51.968;5.918;2023-07-31T03:02:54;245.45;;;229.95;;
22768;SDS011;13001;51.968;5.918;2023-07-31T03:05:21;245.82;;;230.50;;
22768;SDS011;13001;51.968;5.918;2023-07-31T03:07:49;240.57;;;225.53;;
22768;SDS011;13001;51.968;5.918;2023-07-31T03:10:16;236.50;;;221.75;;
22768;SDS011;13001;51.968;5.918;2023-07-31T03:12:46;244.53;;;229.30;;
22768;SDS011;13001;51.968;5.918;2023-07-31T03:15:12;229.63;;;215.10;;
22768;SDS011;13001;51.968;5.918;2023-07-31T03:17:39;230.85;;;216.55;;
22768;SDS011;13001;51.968;5.918;2023-07-31T03:20:07;223.55;;;209.65;;
22768;SDS011;13001;51.968;5.918;2023-07-31T03:22:34;222.42;;;209.00;;
22768;SDS011;13001;51.968;5.918;2023-07-31T03:25:05;226.45;;;212.45;;
22768;SDS011;13001;51.968;5.918;2023-07-31T03:27:32;215.82;;;202.45;;
22768;SDS011;13001;51.968;5.918;2023-07-31T03:29:59;217.13;;;203.70;;
22768;SDS011;13001;51.968;5.918;2023-07-31T03:32:28;202.43;;;189.43;;
22768;SDS011;13001;51.968;5.918;2023-07-31T03:34:57;197.55;;;184.65;;
22768;SDS011;13001;51.968;5.918;2023-07-31T03:37:24;188.22;;;176.07;;
22768;SDS011;13001;51.968;5.918;2023-07-31T03:39:52;180.95;;;169.00;;
22768;SDS011;13001;51.968;5.918;2023-07-31T03:42:19;180.90;;;169.17;;
22768;SDS011;13001;51.968;5.918;2023-07-31T03:44:47;164.52;;;153.95;;
22768;SDS011;13001;51.968;5.918;2023-07-31T03:47:14;160.00;;;149.68;;
22768;SDS011;13001;51.968;5.918;2023-07-31T03:49:41;159.67;;;149.18;;
22768;SDS011;13001;51.968;5.918;2023-07-31T03:52:08;164.07;;;153.30;;
22768;SDS011;13001;51.968;5.918;2023-07-31T03:54:36;161.63;;;150.57;;
22768;SDS011;13001;51.968;5.918;2023-07-31T03:57:03;156.05;;;146.02;;
22768;SDS011;13001;51.968;5.918;2023-07-31T03:59:30;151.37;;;141.68;;
22768;SDS011;13001;51.968;5.918;2023-07-31T04:01:58;143.15;;;134.03;;
22768;SDS011;13001;51.968;5.918;2023-07-31T04:04:25;142.57;;;133.50;;
22768;SDS011;13001;51.968;5.918;2023-07-31T04:06:53;133.78;;;125.38;;
22768;SDS011;13001;51.968;5.918;2023-07-31T04:09:20;137.82;;;128.95;;
22768;SDS011;13001;51.968;5.918;2023-07-31T04:11:47;138.80;;;129.40;;
22768;SDS011;13001;51.968;5.918;2023-07-31T04:14:14;142.22;;;132.95;;
22768;SDS011;13001;51.968;5.918;2023-07-31T04:16:42;139.73;;;130.93;;
22768;SDS011;13001;51.968;5.918;2023-07-31T04:19:09;133.83;;;125.47;;
22768;SDS011;13001;51.968;5.918;2023-07-31T04:21:37;134.72;;;126.50;;
22768;SDS011;13001;51.968;5.918;2023-07-31T04:24:04;132.93;;;124.70;;
22768;SDS011;13001;51.968;5.918;2023-07-31T04:26:33;128.95;;;120.70;;
22768;SDS011;13001;51.968;5.918;2023-07-31T04:29:01;133.25;;;124.67;;
22768;SDS011;13001;51.968;5.918;2023-07-31T04:31:29;134.73;;;126.07;;
22768;SDS011;13001;51.968;5.918;2023-07-31T04:33:56;132.78;;;124.07;;
22768;SDS011;13001;51.968;5.918;2023-07-31T04:36:23;130.40;;;122.00;;
22768;SDS011;13001;51.968;5.918;2023-07-31T04:38:50;132.50;;;123.97;;
22768;SDS011;13001;51.968;5.918;2023-07-31T04:41:18;140.18;;;131.37;;
22768;SDS011;13001;51.968;5.918;2023-07-31T04:43:45;136.25;;;127.70;;
22768;SDS011;13001;51.968;5.918;2023-07-31T04:46:12;130.35;;;122.17;;
22768;SDS011;13001;51.968;5.918;2023-07-31T04:48:39;148.22;;;138.77;;
22768;SDS011;13001;51.968;5.918;2023-07-31T04:51:07;136.83;;;128.23;;
22768;SDS011;13001;51.968;5.918;2023-07-31T04:53:35;139.47;;;130.63;;
22768;SDS011;13001;51.968;5.918;2023-07-31T04:56:03;141.03;;;131.87;;
22768;SDS011;13001;51.968;5.918;2023-07-31T04:58:30;139.95;;;131.25;;
22768;SDS011;13001;51.968;5.918;2023-07-31T05:00:57;146.77;;;137.33;;
22768;SDS011;13001;51.968;5.918;2023-07-31T05:03:25;144.05;;;135.15;;
22768;SDS011;13001;51.968;5.918;2023-07-31T05:05:52;142.15;;;132.95;;
22768;SDS011;13001;51.968;5.918;2023-07-31T05:08:19;136.47;;;128.07;;
22768;SDS011;13001;51.968;5.918;2023-07-31T05:10:46;142.85;;;133.97;;
22768;SDS011;13001;51.968;5.918;2023-07-31T05:13:14;145.38;;;136.40;;
22768;SDS011;13001;51.968;5.918;2023-07-31T05:15:42;142.57;;;133.20;;
22768;SDS011;13001;51.968;5.918;2023-07-31T05:18:09;152.25;;;142.77;;
22768;SDS011;13001;51.968;5.918;2023-07-31T05:20:36;158.27;;;148.38;;
22768;SDS011;13001;51.968;5.918;2023-07-31T05:23:03;168.62;;;157.70;;
22768;SDS011;13001;51.968;5.918;2023-07-31T05:25:31;170.47;;;159.50;;
22768;SDS011;13001;51.968;5.918;2023-07-31T05:27:58;157.70;;;147.33;;
22768;SDS011;13001;51.968;5.918;2023-07-31T05:30:25;160.28;;;150.07;;
22768;SDS011;13001;51.968;5.918;2023-07-31T05:32:52;140.60;;;131.75;;
22768;SDS011;13001;51.968;5.918;2023-07-31T05:35:20;133.80;;;125.53;;
22768;SDS011;13001;51.968;5.918;2023-07-31T05:37:47;132.22;;;124.00;;
22768;SDS011;13001;51.968;5.918;2023-07-31T05:40:14;135.90;;;127.47;;
22768;SDS011;13001;51.968;5.918;2023-07-31T05:42:42;130.25;;;122.20;;
22768;SDS011;13001;51.968;5.918;2023-07-31T05:45:09;136.75;;;128.10;;
22768;SDS011;13001;51.968;5.918;2023-07-31T05:47:36;148.02;;;138.80;;
22768;SDS011;13001;51.968;5.918;2023-07-31T05:50:04;143.78;;;134.70;;
22768;SDS011;13001;51.968;5.918;2023-07-31T05:52:31;160.97;;;150.93;;
22768;SDS011;13001;51.968;5.918;2023-07-31T05:54:58;178.55;;;167.15;;
22768;SDS011;13001;51.968;5.918;2023-07-31T05:57:26;185.00;;;173.43;;
22768;SDS011;13001;51.968;5.918;2023-07-31T05:59:53;192.62;;;180.75;;
22768;SDS011;13001;51.968;5.918;2023-07-31T06:02:20;202.13;;;189.75;;
22768;SDS011;13001;51.968;5.918;2023-07-31T06:04:47;213.75;;;200.43;;
22768;SDS011;13001;51.968;5.918;2023-07-31T06:07:15;216.12;;;203.05;;
22768;SDS011;13001;51.968;5.918;2023-07-31T06:09:42;230.70;;;216.85;;
22768;SDS011;13001;51.968;5.918;2023-07-31T06:12:09;233.10;;;219.25;;
22768;SDS011;13001;51.968;5.918;2023-07-31T06:14:36;231.80;;;218.00;;
22768;SDS011;13001;51.968;5.918;2023-07-31T06:17:04;237.67;;;223.80;;
22768;SDS011;13001;51.968;5.918;2023-07-31T06:19:31;244.80;;;230.70;;
22768;SDS011;13001;51.968;5.918;2023-07-31T06:21:59;244.22;;;230.10;;
22768;SDS011;13001;51.968;5.918;2023-07-31T06:24:26;239.00;;;224.95;;
22768;SDS011;13001;51.968;5.918;2023-07-31T06:26:53;234.22;;;220.37;;
22768;SDS011;13001;51.968;5.918;2023-07-31T06:29:20;237.13;;;223.17;;
22768;SDS011;13001;51.968;5.918;2023-07-31T06:31:48;235.63;;;221.67;;
22768;SDS011;13001;51.968;5.918;2023-07-31T06:34:15;242.35;;;228.22;;
22768;SDS011;13001;51.968;5.918;2023-07-31T06:36:42;243.30;;;229.25;;
22768;SDS011;13001;51.968;5.918;2023-07-31T06:39:09;245.27;;;231.05;;
22768;SDS011;13001;51.968;5.918;2023-07-31T06:41:39;245.05;;;230.43;;
22768;SDS011;13001;51.968;5.918;2023-07-31T06:44:05;232.12;;;218.73;;
22768;SDS011;13001;51.968;5.918;2023-07-31T06:46:33;242.32;;;228.27;;
22768;SDS011;13001;51.968;5.918;2023-07-31T06:49:00;232.32;;;218.90;;
22768;SDS011;13001;51.968;5.918;2023-07-31T06:51:27;235.43;;;221.75;;
22768;SDS011;13001;51.968;5.918;2023-07-31T06:53:54;230.45;;;217.18;;
22768;SDS011;13001;51.968;5.918;2023-07-31T06:56:22;227.65;;;214.65;;
22768;SDS011;13001;51.968;5.918;2023-07-31T06:58:49;235.08;;;221.50;;
22768;SDS011;13001;51.968;5.918;2023-07-31T07:01:16;229.43;;;216.20;;
22768;SDS011;13001;51.968;5.918;2023-07-31T07:03:43;230.57;;;217.40;;
22768;SDS011;13001;51.968;5.918;2023-07-31T07:06:11;232.90;;;219.47;;
22768;SDS011;13001;51.968;5.918;2023-07-31T07:08:38;231.45;;;218.35;;
22768;SDS011;13001;51.968;5.918;2023-07-31T07:11:05;228.67;;;215.57;;
22768;SDS011;13001;51.968;5.918;2023-07-31T07:13:32;227.05;;;214.08;;
22768;SDS011;13001;51.968;5.918;2023-07-31T07:16:00;224.77;;;211.95;;
22768;SDS011;13001;51.968;5.918;2023-07-31T07:18:27;229.95;;;216.80;;
22768;SDS011;13001;51.968;5.918;2023-07-31T07:20:54;220.23;;;207.73;;
22768;SDS011;13001;51.968;5.918;2023-07-31T07:23:23;223.95;;;211.20;;
22768;SDS011;13001;51.968;5.918;2023-07-31T07:25:51;222.30;;;209.57;;
22768;SDS011;13001;51.968;5.918;2023-07-31T07:28:18;219.32;;;206.78;;
22768;SDS011;13001;51.968;5.918;2023-07-31T07:30:50;218.35;;;205.85;;
22768;SDS011;13001;51.968;5.918;2023-07-31T07:33:14;207.62;;;195.75;;
22768;SDS011;13001;51.968;5.918;2023-07-31T07:35:41;193.07;;;181.87;;
22768;SDS011;13001;51.968;5.918;2023-07-31T07:38:09;185.70;;;174.80;;
22768;SDS011;13001;51.968;5.918;2023-07-31T07:40:39;182.97;;;172.17;;
22768;SDS011;13001;51.968;5.918;2023-07-31T07:43:07;176.72;;;166.35;;
22768;SDS011;13001;51.968;5.918;2023-07-31T07:45:35;186.47;;;175.70;;
22768;SDS011;13001;51.968;5.918;2023-07-31T07:48:02;197.20;;;185.70;;
22768;SDS011;13001;51.968;5.918;2023-07-31T07:50:29;203.65;;;192.05;;
22768;SDS011;13001;51.968;5.918;2023-07-31T07:52:57;212.15;;;200.07;;
22768;SDS011;13001;51.968;5.918;2023-07-31T07:55:24;196.93;;;185.50;;
22768;SDS011;13001;51.968;5.918;2023-07-31T07:57:55;206.72;;;194.77;;
22768;SDS011;13001;51.968;5.918;2023-07-31T08:00:22;208.20;;;196.35;;
22768;SDS011;13001;51.968;5.918;2023-07-31T08:02:49;211.67;;;199.53;;
22768;SDS011;13001;51.968;5.918;2023-07-31T08:05:17;215.85;;;203.65;;
22768;SDS011;13001;51.968;5.918;2023-07-31T08:07:44;213.22;;;201.18;;
22768;SDS011;13001;51.968;5.918;2023-07-31T08:10:11;212.17;;;200.18;;
22768;SDS011;13001;51.968;5.918;2023-07-31T08:12:38;220.42;;;207.92;;
22768;SDS011;13001;51.968;5.918;2023-07-31T08:15:06;225.35;;;212.65;;
22768;SDS011;13001;51.968;5.918;2023-07-31T08:17:34;226.50;;;213.75;;
22768;SDS011;13001;51.968;5.918;2023-07-31T08:20:01;222.60;;;209.95;;
22768;SDS011;13001;51.968;5.918;2023-07-31T08:22:31;221.43;;;208.95;;
22768;SDS011;13001;51.968;5.918;2023-07-31T08:24:58;218.65;;;206.25;;
22768;SDS011;13001;51.968;5.918;2023-07-31T08:27:25;217.35;;;205.12;;
22768;SDS011;13001;51.968;5.918;2023-07-31T08:29:53;212.48;;;200.35;;
22768;SDS011;13001;51.968;5.918;2023-07-31T08:32:20;216.15;;;203.90;;
22768;SDS011;13001;51.968;5.918;2023-07-31T08:34:47;201.40;;;189.90;;
22768;SDS011;13001;51.968;5.918;2023-07-31T08:37:15;177.57;;;167.18;;
22768;SDS011;13001;51.968;5.918;2023-07-31T08:39:42;180.15;;;169.65;;
22768;SDS011;13001;51.968;5.918;2023-07-31T08:42:10;174.65;;;164.35;;
22768;SDS011;13001;51.968;5.918;2023-07-31T08:44:37;179.55;;;168.95;;
22768;SDS011;13001;51.968;5.918;2023-07-31T08:47:05;164.13;;;154.50;;
22768;SDS011;13001;51.968;5.918;2023-07-31T08:49:33;170.40;;;160.20;;
22768;SDS011;13001;51.968;5.918;2023-07-31T08:52:00;152.82;;;143.78;;
22768;SDS011;13001;51.968;5.918;2023-07-31T08:54:30;147.03;;;138.33;;
22768;SDS011;13001;51.968;5.918;2023-07-31T08:56:59;141.03;;;132.72;;
22768;SDS011;13001;51.968;5.918;2023-07-31T08:59:32;128.72;;;121.13;;
22768;SDS011;13001;51.968;5.918;2023-07-31T09:01:55;137.85;;;129.80;;
22768;SDS011;13001;51.968;5.918;2023-07-31T09:04:24;142.28;;;133.87;;
22768;SDS011;13001;51.968;5.918;2023-07-31T09:06:54;131.80;;;124.00;;
22768;SDS011;13001;51.968;5.918;2023-07-31T09:09:22;121.87;;;114.80;;
22768;SDS011;13001;51.968;5.918;2023-07-31T09:11:49;120.97;;;113.83;;
22768;SDS011;13001;51.968;5.918;2023-07-31T09:14:16;117.93;;;110.93;;
22768;SDS011;13001;51.968;5.918;2023-07-31T09:16:57;124.12;;;116.85;;
22768;SDS011;13001;51.968;5.918;2023-07-31T09:19:26;108.07;;;101.75;;
22768;SDS011;13001;51.968;5.918;2023-07-31T09:21:54;114.10;;;107.47;;
22768;SDS011;13001;51.968;5.918;2023-07-31T09:24:24;137.80;;;129.68;;
22768;SDS011;13001;51.968;5.918;2023-07-31T09:26:57;143.40;;;134.85;;
22768;SDS011;13001;51.968;5.918;2023-07-31T09:29:23;140.62;;;132.32;;
22768;SDS011;13001;51.968;5.918;2023-07-31T09:31:51;138.13;;;129.87;;
22768;SDS011;13001;51.968;5.918;2023-07-31T09:34:18;142.67;;;134.03;;
22768;SDS011;13001;51.968;5.918;2023-07-31T09:36:46;136.28;;;128.27;;
22768;SDS011;13001;51.968;5.918;2023-07-31T09:39:14;131.20;;;123.30;;
22768;SDS011;13001;51.968;5.918;2023-07-31T09:41:43;132.67;;;124.67;;
22768;SDS011;13001;51.968;5.918;2023-07-31T09:44:11;125.87;;;118.22;;
22768;SDS011;13001;51.968;5.918;2023-07-31T09:46:38;109.83;;;103.53;;
22768;SDS011;13001;51.968;5.918;2023-07-31T09:49:07;109.90;;;103.42;;
22768;SDS011;13001;51.968;5.918;2023-07-31T09:51:40;109.73;;;103.23;;
22768;SDS011;13001;51.968;5.918;2023-07-31T09:54:11;109.33;;;102.83;;
22768;SDS011;13001;51.968;5.918;2023-07-31T09:56:49;103.83;;;97.72;;
22768;SDS011;13001;51.968;5.918;2023-07-31T09:59:21;101.95;;;95.95;;
22768;SDS011;13001;51.968;5.918;2023-07-31T10:01:47;96.92;;;91.25;;
22768;SDS011;13001;51.968;5.918;2023-07-31T10:04:14;101.33;;;95.42;;
22768;SDS011;13001;51.968;5.918;2023-07-31T10:06:42;97.00;;;91.32;;
22768;SDS011;13001;51.968;5.918;2023-07-31T10:09:11;81.35;;;76.70;;
22768;SDS011;13001;51.968;5.918;2023-07-31T10:11:42;121.17;;;114.22;;
22768;SDS011;13001;51.968;5.918;2023-07-31T10:14:13;146.62;;;138.00;;
22768;SDS011;13001;51.968;5.918;2023-07-31T10:16:39;165.68;;;156.18;;
22768;SDS011;13001;51.968;5.918;2023-07-31T10:19:10;178.10;;;167.95;;
22768;SDS011;13001;51.968;5.918;2023-07-31T10:21:37;196.87;;;185.55;;
22768;SDS011;13001;51.968;5.918;2023-07-31T10:24:04;233.35;;;220.30;;
22768;SDS011;13001;51.968;5.918;2023-07-31T10:26:32;269.37;;;253.88;;
22768;SDS011;13001;51.968;5.918;2023-07-31T10:29:02;263.50;;;248.60;;
22768;SDS011;13001;51.968;5.918;2023-07-31T10:31:31;263.10;;;247.75;;
22768;SDS011;13001;51.968;5.918;2023-07-31T10:33:59;241.20;;;227.35;;
22768;SDS011;13001;51.968;5.918;2023-07-31T10:36:28;261.40;;;246.55;;
22768;SDS011;13001;51.968;5.918;2023-07-31T10:38:56;254.55;;;239.88;;
22768;SDS011;13001;51.968;5.918;2023-07-31T10:41:28;245.52;;;231.43;;
22768;SDS011;13001;51.968;5.918;2023-07-31T10:43:58;254.80;;;240.25;;
22768;SDS011;13001;51.968;5.918;2023-07-31T10:46:27;253.25;;;238.32;;
22768;SDS011;13001;51.968;5.918;2023-07-31T10:48:59;269.85;;;254.45;;
22768;SDS011;13001;51.968;5.918;2023-07-31T10:51:33;279.50;;;263.52;;
22768;SDS011;13001;51.968;5.918;2023-07-31T10:54:11;303.77;;;286.45;;
22768;SDS011;13001;51.968;5.918;2023-07-31T10:56:38;304.82;;;287.40;;
22768;SDS011;13001;51.968;5.918;2023-07-31T10:59:06;310.00;;;292.25;;
22768;SDS011;13001;51.968;5.918;2023-07-31T11:01:56;264.57;;;249.60;;
22768;SDS011;13001;51.968;5.918;2023-07-31T11:04:09;260.17;;;245.20;;
22768;SDS011;13001;51.968;5.918;2023-07-31T11:06:31;240.47;;;227.03;;
22768;SDS011;13001;51.968;5.918;2023-07-31T11:08:58;240.10;;;226.37;;
22768;SDS011;13001;51.968;5.918;2023-07-31T11:11:26;237.40;;;223.80;;
22768;SDS011;13001;51.968;5.918;2023-07-31T11:13:53;218.52;;;205.92;;
22768;SDS011;13001;51.968;5.918;2023-07-31T11:16:21;243.70;;;229.90;;
22768;SDS011;13001;51.968;5.918;2023-07-31T11:18:49;248.65;;;234.37;;
22768;SDS011;13001;51.968;5.918;2023-07-31T11:21:19;250.03;;;236.00;;
22768;SDS011;13001;51.968;5.918;2023-07-31T11:23:47;154.47;;;145.43;;
22768;SDS011;13001;51.968;5.918;2023-07-31T11:26:14;109.23;;;102.63;;
22768;SDS011;13001;51.968;5.918;2023-07-31T11:28:42;97.15;;;91.17;;
22768;SDS011;13001;51.968;5.918;2023-07-31T11:31:09;82.55;;;77.53;;
22768;SDS011;13001;51.968;5.918;2023-07-31T11:33:37;79.40;;;74.27;;
22768;SDS011;13001;51.968;5.918;2023-07-31T11:36:04;70.05;;;65.72;;
22768;SDS011;13001;51.968;5.918;2023-07-31T11:38:32;85.38;;;80.05;;
22768;SDS011;13001;51.968;5.918;2023-07-31T11:41:01;79.42;;;74.35;;
22768;SDS011;13001;51.968;5.918;2023-07-31T11:43:32;75.53;;;70.83;;
22768;SDS011;13001;51.968;5.918;2023-07-31T11:46:00;75.50;;;70.62;;
22768;SDS011;13001;51.968;5.918;2023-07-31T11:48:33;85.30;;;79.50;;
22768;SDS011;13001;51.968;5.918;2023-07-31T11:51:08;94.60;;;88.70;;
22768;SDS011;13001;51.968;5.918;2023-07-31T11:53:33;102.58;;;96.40;;
22768;SDS011;13001;51.968;5.918;2023-07-31T11:55:59;128.32;;;120.30;;
22768;SDS011;13001;51.968;5.918;2023-07-31T11:58:29;138.37;;;129.87;;
22768;SDS011;13001;51.968;5.918;2023-07-31T12:00:56;153.90;;;144.35;;
22768;SDS011;13001;51.968;5.918;2023-07-31T12:03:23;170.87;;;160.12;;
22768;SDS011;13001;51.968;5.918;2023-07-31T12:05:51;153.47;;;144.10;;
22768;SDS011;13001;51.968;5.918;2023-07-31T12:08:22;138.20;;;129.67;;
22768;SDS011;13001;51.968;5.918;2023-07-31T12:10:51;183.57;;;172.30;;
22768;SDS011;13001;51.968;5.918;2023-07-31T12:13:22;177.78;;;166.75;;
22768;SDS011;13001;51.968;5.918;2023-07-31T12:15:54;183.20;;;171.85;;
22768;SDS011;13001;51.968;5.918;2023-07-31T12:18:19;197.00;;;185.03;;
22768;SDS011;13001;51.968;5.918;2023-07-31T12:20:48;189.97;;;178.18;;
22768;SDS011;13001;51.968;5.918;2023-07-31T12:23:19;199.70;;;187.65;;
22768;SDS011;13001;51.968;5.918;2023-07-31T12:25:59;201.40;;;189.03;;
22768;SDS011;13001;51.968;5.918;2023-07-31T12:28:22;217.22;;;204.20;;
22768;SDS011;13001;51.968;5.918;2023-07-31T12:30:49;216.17;;;203.00;;
22768;SDS011;13001;51.968;5.918;2023-07-31T12:33:18;214.55;;;201.40;;
22768;SDS011;13001;51.968;5.918;2023-07-31T12:35:46;216.57;;;203.58;;
22768;SDS011;13001;51.968;5.918;2023-07-31T12:38:13;240.20;;;225.78;;
22768;SDS011;13001;51.968;5.918;2023-07-31T12:40:41;183.70;;;172.22;;
22768;SDS011;13001;51.968;5.918;2023-07-31T12:43:09;175.85;;;165.15;;
22768;SDS011;13001;51.968;5.918;2023-07-31T12:45:36;158.68;;;148.90;;
22768;SDS011;13001;51.968;5.918;2023-07-31T12:48:03;194.52;;;182.78;;
22768;SDS011;13001;51.968;5.918;2023-07-31T12:50:30;131.83;;;123.93;;
22768;SDS011;13001;51.968;5.918;2023-07-31T12:52:58;97.70;;;92.00;;
22768;SDS011;13001;51.968;5.918;2023-07-31T12:55:25;163.52;;;153.75;;
22768;SDS011;13001;51.968;5.918;2023-07-31T12:57:52;135.40;;;127.35;;
22768;SDS011;13001;51.968;5.918;2023-07-31T13:00:20;125.42;;;118.02;;
22768;SDS011;13001;51.968;5.918;2023-07-31T13:02:47;104.38;;;97.90;;
22768;SDS011;13001;51.968;5.918;2023-07-31T13:05:14;93.45;;;87.85;;
22768;SDS011;13001;51.968;5.918;2023-07-31T13:07:41;128.05;;;120.50;;
22768;SDS011;13001;51.968;5.918;2023-07-31T13:10:09;104.65;;;98.52;;
22768;SDS011;13001;51.968;5.918;2023-07-31T13:12:36;111.37;;;104.70;;
22768;SDS011;13001;51.968;5.918;2023-07-31T13:15:06;133.78;;;125.70;;
22768;SDS011;13001;51.968;5.918;2023-07-31T13:17:34;130.93;;;122.95;;
22768;SDS011;13001;51.968;5.918;2023-07-31T13:20:02;186.95;;;175.78;;
22768;SDS011;13001;51.968;5.918;2023-07-31T13:22:29;245.42;;;230.87;;
22768;SDS011;13001;51.968;5.918;2023-07-31T13:24:56;260.38;;;244.75;;
22768;SDS011;13001;51.968;5.918;2023-07-31T13:27:24;250.18;;;235.40;;
22768;SDS011;13001;51.968;5.918;2023-07-31T13:29:51;269.45;;;253.52;;
22768;SDS011;13001;51.968;5.918;2023-07-31T13:32:19;313.30;;;294.32;;
22768;SDS011;13001;51.968;5.918;2023-07-31T13:34:47;277.45;;;261.05;;
22768;SDS011;13001;51.968;5.918;2023-07-31T13:37:14;329.70;;;309.70;;
22768;SDS011;13001;51.968;5.918;2023-07-31T13:39:42;338.18;;;317.50;;
22768;SDS011;13001;51.968;5.918;2023-07-31T13:42:09;384.83;;;360.43;;
22768;SDS011;13001;51.968;5.918;2023-07-31T13:44:38;292.30;;;274.73;;
22768;SDS011;13001;51.968;5.918;2023-07-31T13:47:06;388.30;;;363.52;;
22768;SDS011;13001;51.968;5.918;2023-07-31T13:49:33;364.48;;;341.88;;
22768;SDS011;13001;51.968;5.918;2023-07-31T13:52:02;353.73;;;331.63;;
22768;SDS011;13001;51.968;5.918;2023-07-31T13:54:29;292.05;;;273.95;;
22768;SDS011;13001;51.968;5.918;2023-07-31T13:56:56;282.92;;;265.65;;
22768;SDS011;13001;51.968;5.918;2023-07-31T13:59:24;187.22;;;175.95;;
22768;SDS011;13001;51.968;5.918;2023-07-31T14:01:51;298.38;;;280.25;;